Time;durP1;ratioP1;P1;durP2;ratioP2;P2;SDS_P1;SDS_P2;PMS_P1;PMS_P2;Temp;Humidity;BMP_temperature;BMP_pressure;BME280_temperature;BME280_humidity;BME280_pressure;Samples;Min_cycle;Max_cycle;Signal;HPM_P1;HPM_P2
2022/04/11 00:01:37;;;;;;;8.15;7.45;;;3.60;99.90;;;;;;5996357;23;20546;-78
2022/04/11 00:04:05;;;;;;;7.38;6.13;;;3.50;99.90;;;;;;6000418;23;20590;-77
2022/04/11 00:06:32;;;;;;;7.63;6.93;;;3.50;99.90;;;;;;5988249;23;20570;-78
2022/04/11 00:08:59;;;;;;;6.60;6.00;;;3.50;99.90;;;;;;5995150;23;20201;-78
2022/04/11 00:11:26;;;;;;;7.30;6.70;;;3.50;99.90;;;;;;5996789;23;20672;-78
2022/04/11 00:13:53;;;;;;;7.18;6.47;;;3.40;99.90;;;;;;5986864;23;20196;-77
2022/04/11 00:16:20;;;;;;;6.43;5.82;;;3.40;99.90;;;;;;5996947;23;20188;-77
2022/04/11 00:18:47;;;;;;;7.15;6.55;;;3.40;99.90;;;;;;5998308;23;20298;-78
2022/04/11 00:21:15;;;;;;;7.82;7.05;;;3.40;99.90;;;;;;5997191;23;20279;-78
2022/04/11 00:23:42;;;;;;;7.28;6.45;;;3.40;99.90;;;;;;5996687;23;20213;-77
2022/04/11 00:26:09;;;;;;;7.82;7.03;;;3.40;99.90;;;;;;5986809;23;20295;-77
2022/04/11 00:28:35;;;;;;;6.75;6.15;;;3.30;99.90;;;;;;5998045;23;20233;-78
2022/04/11 00:31:02;;;;;;;6.40;5.80;;;3.20;99.90;;;;;;5992625;23;20198;-78
2022/04/11 00:33:29;;;;;;;6.43;5.82;;;3.20;99.90;;;;;;5995828;23;20213;-78
2022/04/11 00:35:56;;;;;;;6.60;6.00;;;3.20;99.90;;;;;;5998408;23;20223;-77
2022/04/11 00:38:25;;;;;;;6.38;5.88;;;3.10;99.90;;;;;;5987714;23;20295;-78
2022/04/11 00:40:52;;;;;;;7.53;6.65;;;3.10;99.90;;;;;;5994535;23;20205;-77
2022/04/11 00:43:33;;;;;;;6.45;5.95;;;3.10;99.90;;;;;;5993167;23;20184;-77
2022/04/11 00:46:01;;;;;;;6.55;6.05;;;3.10;99.90;;;;;;5998041;23;20200;-77
2022/04/11 00:48:28;;;;;;;6.93;6.22;;;3.10;99.90;;;;;;5991382;23;20196;-78
2022/04/11 00:50:57;;;;;;;7.28;6.65;;;3.00;99.90;;;;;;5997755;23;20197;-77
2022/04/11 00:53:27;;;;;;;6.82;6.20;;;3.00;99.90;;;;;;5996065;23;20282;-78
2022/04/11 00:55:57;;;;;;;7.75;7.05;;;2.90;99.90;;;;;;5998744;23;20194;-75
2022/04/11 00:58:25;;;;;;;7.72;6.45;;;2.90;99.90;;;;;;5996103;23;20222;-76
2022/04/11 01:00:52;;;;;;;6.88;5.82;;;2.80;99.90;;;;;;5993865;23;20194;-76
2022/04/11 01:03:19;;;;;;;7.00;6.50;;;2.80;99.90;;;;;;5999552;23;20553;-76
2022/04/11 01:05:46;;;;;;;7.35;6.15;;;2.70;99.90;;;;;;5993536;23;20213;-77
2022/04/11 01:08:13;;;;;;;6.63;6.13;;;2.70;99.90;;;;;;5998462;23;20289;-77
2022/04/11 01:10:42;;;;;;;7.40;6.80;;;2.70;99.90;;;;;;5998282;23;20192;-77
2022/04/11 01:13:09;;;;;;;7.28;6.65;;;2.70;99.90;;;;;;5994993;23;20249;-75
2022/04/11 01:15:36;;;;;;;7.65;6.90;;;2.70;99.90;;;;;;5993373;23;20268;-77
2022/04/11 01:18:02;;;;;;;8.13;7.30;;;2.60;99.90;;;;;;5993892;23;20219;-78
2022/04/11 01:20:30;;;;;;;7.97;7.25;;;2.60;99.90;;;;;;5995191;23;20218;-78
2022/04/11 01:22:58;;;;;;;7.72;7.03;;;2.60;99.90;;;;;;5993371;23;20193;-78
2022/04/11 01:25:25;;;;;;;7.15;6.55;;;2.60;99.90;;;;;;5998038;23;20196;-77
2022/04/11 01:27:52;;;;;;;8.88;7.15;;;2.70;99.90;;;;;;5999309;23;20211;-79
2022/04/11 01:30:19;;;;;;;7.00;6.40;;;2.70;99.90;;;;;;5999438;23;20287;-77
2022/04/11 01:32:46;;;;;;;8.68;7.72;;;2.70;99.90;;;;;;5995497;23;20203;-78
2022/04/11 01:35:21;;;;;;;7.82;7.05;;;2.70;99.90;;;;;;5999668;23;20276;-77
2022/04/11 01:37:48;;;;;;;8.23;7.43;;;2.80;99.90;;;;;;5996120;23;20278;-77
2022/04/11 01:40:16;;;;;;;8.27;7.57;;;2.80;99.90;;;;;;5996746;23;20228;-77
2022/04/11 01:42:43;;;;;;;8.77;7.88;;;2.90;99.90;;;;;;5997948;23;20196;-77
2022/04/11 01:45:11;;;;;;;8.05;7.32;;;2.90;99.90;;;;;;5989721;23;20202;-77
2022/04/11 01:47:39;;;;;;;8.00;7.30;;;2.90;99.90;;;;;;5995128;23;21111;-76
2022/04/11 01:50:07;;;;;;;8.48;7.65;;;2.90;99.90;;;;;;5999997;23;20190;-77
2022/04/11 01:52:34;;;;;;;7.97;7.28;;;2.90;99.90;;;;;;6001293;23;20182;-77
2022/04/11 01:55:02;;;;;;;8.43;6.32;;;2.90;99.90;;;;;;6000688;23;20183;-76
2022/04/11 01:57:31;;;;;;;7.70;6.90;;;2.90;99.90;;;;;;6000799;23;20638;-77
2022/04/11 01:59:58;;;;;;;8.80;7.45;;;2.90;99.90;;;;;;5989870;23;20670;-76
2022/04/11 02:02:26;;;;;;;7.80;7.10;;;2.90;99.90;;;;;;6001145;23;20197;-77
2022/04/11 02:04:52;;;;;;;7.25;6.55;;;2.80;99.90;;;;;;5988060;23;20226;-76
2022/04/11 02:07:19;;;;;;;7.25;6.55;;;2.80;99.90;;;;;;5999615;23;20595;-77
2022/04/11 02:09:46;;;;;;;6.53;5.88;;;2.80;99.90;;;;;;5993605;23;20665;-77
2022/04/11 02:12:13;;;;;;;7.50;6.80;;;2.80;99.90;;;;;;5995551;23;20187;-77
2022/04/11 02:14:42;;;;;;;6.50;6.00;;;2.70;99.90;;;;;;5989426;23;20206;-77
2022/04/11 02:17:09;;;;;;;7.72;7.00;;;2.70;99.90;;;;;;5996199;23;20225;-77
2022/04/11 02:19:36;;;;;;;7.70;6.93;;;2.70;99.90;;;;;;5994725;23;20229;-77
2022/04/11 02:22:03;;;;;;;7.35;6.72;;;2.70;99.90;;;;;;5997617;23;20540;-77
2022/04/11 02:24:30;;;;;;;7.78;7.10;;;2.80;99.90;;;;;;6000078;23;20265;-77
2022/04/11 02:26:56;;;;;;;7.90;6.07;;;2.70;99.90;;;;;;5991019;23;20298;-77
2022/04/11 02:29:24;;;;;;;7.15;6.13;;;2.70;99.90;;;;;;6002499;23;20202;-77
2022/04/11 02:31:52;;;;;;;7.28;5.75;;;2.60;99.90;;;;;;5998509;23;20190;-77
2022/04/11 02:34:19;;;;;;;6.53;6.03;;;2.70;99.90;;;;;;5998871;23;20198;-77
2022/04/11 02:36:46;;;;;;;5.90;5.30;;;2.70;99.90;;;;;;6001057;23;20211;-77
2022/04/11 02:39:13;;;;;;;7.75;6.07;;;2.60;99.90;;;;;;5998061;23;20762;-77
2022/04/11 02:41:40;;;;;;;6.45;5.85;;;2.60;99.90;;;;;;6000082;23;20217;-77
2022/04/11 02:44:07;;;;;;;6.45;5.90;;;2.60;99.90;;;;;;5995617;23;20205;-77
2022/04/11 02:46:34;;;;;;;8.25;6.30;;;2.50;99.90;;;;;;5993083;23;20286;-77
2022/04/11 02:49:02;;;;;;;7.28;6.57;;;2.50;99.90;;;;;;5990865;23;20281;-77
2022/04/11 02:51:29;;;;;;;6.40;5.88;;;2.40;99.90;;;;;;5998259;23;20195;-77
2022/04/11 02:53:56;;;;;;;6.50;5.90;;;2.40;99.90;;;;;;5990131;23;20182;-77
2022/04/11 02:56:23;;;;;;;6.68;6.07;;;2.30;99.90;;;;;;5999199;23;20218;-77
2022/04/11 02:58:50;;;;;;;7.88;6.18;;;2.30;99.90;;;;;;5994016;23;20270;-77
2022/04/11 03:01:17;;;;;;;7.18;6.32;;;2.20;99.90;;;;;;5985414;23;20183;-77
2022/04/11 03:03:44;;;;;;;6.40;5.80;;;2.20;99.90;;;;;;5999933;23;20193;-77
2022/04/11 03:06:13;;;;;;;7.05;6.38;;;2.30;99.90;;;;;;5995662;23;20223;-77
2022/04/11 03:08:40;;;;;;;6.05;5.50;;;2.30;99.90;;;;;;5998912;23;20237;-77
2022/04/11 03:11:06;;;;;;;6.90;6.30;;;2.30;99.90;;;;;;5992965;23;20186;-78
2022/04/11 03:13:33;;;;;;;7.25;6.63;;;2.40;99.90;;;;;;5996271;23;20710;-78
2022/04/11 03:16:00;;;;;;;7.57;6.18;;;2.40;99.90;;;;;;5990387;23;20241;-78
2022/04/11 03:18:27;;;;;;;6.75;6.25;;;2.40;99.90;;;;;;6000661;23;20614;-78
2022/04/11 03:20:54;;;;;;;6.57;6.00;;;2.40;99.90;;;;;;5994926;23;20768;-78
2022/04/11 03:23:23;;;;;;;6.45;5.95;;;2.40;99.90;;;;;;5996727;23;20267;-77
2022/04/11 03:25:49;;;;;;;7.00;6.30;;;2.40;99.90;;;;;;5994935;23;20294;-77
2022/04/11 03:28:16;;;;;;;6.40;5.80;;;2.40;99.90;;;;;;5997380;23;20744;-77
2022/04/11 03:30:43;;;;;;;6.90;6.13;;;2.40;99.90;;;;;;5986672;23;20270;-77
2022/04/11 03:33:10;;;;;;;7.07;6.35;;;2.50;99.90;;;;;;5988337;23;20194;-77
2022/04/11 03:35:37;;;;;;;6.70;6.10;;;2.50;99.90;;;;;;5993545;23;20221;-77
2022/04/11 03:38:04;;;;;;;6.20;5.68;;;2.40;99.90;;;;;;5995833;23;20197;-77
2022/04/11 03:40:33;;;;;;;6.50;5.88;;;2.50;99.90;;;;;;5985000;23;20299;-77
2022/04/11 03:43:00;;;;;;;6.38;5.78;;;2.50;99.90;;;;;;5994109;23;20196;-77
2022/04/11 03:45:27;;;;;;;6.43;5.82;;;2.50;99.90;;;;;;5989183;23;20238;-76
2022/04/11 03:47:53;;;;;;;6.97;6.28;;;2.50;99.90;;;;;;5996418;23;20532;-77
2022/04/11 03:50:20;;;;;;;6.85;6.15;;;2.50;99.90;;;;;;5993636;23;20183;-76
2022/04/11 03:52:47;;;;;;;6.47;5.90;;;2.50;99.90;;;;;;5999269;23;20194;-76
2022/04/11 03:55:14;;;;;;;6.57;5.57;;;2.60;99.90;;;;;;5996889;23;20222;-76
2022/04/11 03:57:42;;;;;;;5.93;5.40;;;2.60;99.90;;;;;;5998025;23;20225;-77
2022/04/11 04:00:10;;;;;;;6.28;5.50;;;2.70;99.90;;;;;;5998124;23;20338;-76
2022/04/11 04:02:37;;;;;;;6.40;5.90;;;2.60;99.90;;;;;;6002707;23;20229;-79
2022/04/11 04:05:05;;;;;;;6.38;5.88;;;2.70;99.90;;;;;;6001065;23;20240;-79
2022/04/11 04:07:32;;;;;;;6.10;5.60;;;2.70;99.90;;;;;;5998723;23;20261;-79
2022/04/11 04:09:58;;;;;;;6.60;6.10;;;2.70;99.90;;;;;;5996607;23;20193;-79
2022/04/11 04:12:25;;;;;;;6.60;6.00;;;2.70;99.90;;;;;;6002844;23;20291;-79
2022/04/11 04:14:54;;;;;;;6.97;6.38;;;2.70;99.90;;;;;;5995716;23;20279;-79
2022/04/11 04:17:21;;;;;;;6.63;6.13;;;2.70;99.90;;;;;;5997207;23;20205;-79
2022/04/11 04:19:48;;;;;;;6.78;6.20;;;2.80;99.90;;;;;;5996295;23;20286;-80
2022/04/11 04:22:15;;;;;;;6.70;6.10;;;2.80;99.90;;;;;;5996932;23;20197;-80
2022/04/11 04:24:42;;;;;;;6.00;5.50;;;2.80;99.90;;;;;;5996532;23;20218;-80
2022/04/11 04:27:09;;;;;;;6.20;5.60;;;2.80;99.90;;;;;;5999224;23;20897;-80
2022/04/11 04:29:36;;;;;;;6.70;6.10;;;2.80;99.90;;;;;;5990902;23;20735;-80
2022/04/11 04:32:05;;;;;;;6.60;6.00;;;2.80;99.90;;;;;;5996038;23;20529;-80
2022/04/11 04:34:32;;;;;;;6.65;6.05;;;2.80;99.90;;;;;;5999461;23;20202;-80
2022/04/11 04:36:59;;;;;;;6.78;6.18;;;2.70;99.90;;;;;;6000136;23;20233;-80
2022/04/11 04:39:26;;;;;;;8.48;6.35;;;2.70;99.90;;;;;;5996707;23;20278;-80
2022/04/11 04:41:53;;;;;;;6.70;6.10;;;2.70;99.90;;;;;;6000290;23;20192;-80
2022/04/11 04:44:20;;;;;;;6.95;6.15;;;2.70;99.90;;;;;;5996051;23;20206;-79
2022/04/11 04:46:47;;;;;;;7.32;6.70;;;2.60;99.90;;;;;;6000601;23;20285;-80
2022/04/11 04:49:16;;;;;;;7.07;6.30;;;2.60;99.90;;;;;;5996871;23;20270;-80
2022/04/11 04:51:43;;;;;;;6.60;5.95;;;2.50;99.90;;;;;;5995851;23;20199;-80
2022/04/11 04:54:09;;;;;;;6.80;6.20;;;2.50;99.90;;;;;;5998379;23;20218;-80
2022/04/11 04:56:36;;;;;;;7.38;6.78;;;2.50;99.90;;;;;;5991578;23;20236;-80
2022/04/11 04:59:03;;;;;;;7.40;6.75;;;2.50;99.90;;;;;;5982821;23;20191;-79
2022/04/11 05:01:30;;;;;;;8.48;6.68;;;2.50;99.90;;;;;;5990896;23;20202;-81
2022/04/11 05:03:57;;;;;;;7.78;7.07;;;2.50;99.90;;;;;;6001096;23;20639;-78
2022/04/11 05:06:26;;;;;;;7.75;7.05;;;2.50;99.90;;;;;;5991692;23;20217;-79
2022/04/11 05:08:52;;;;;;;7.32;6.68;;;2.50;99.90;;;;;;5993219;23;20194;-78
2022/04/11 05:11:20;;;;;;;9.57;7.55;;;2.50;99.90;;;;;;6000294;23;20265;-79
2022/04/11 05:13:47;;;;;;;7.50;6.88;;;2.50;99.90;;;;;;5991106;23;20265;-79
2022/04/11 05:16:15;;;;;;;7.85;7.15;;;2.50;99.90;;;;;;5995137;23;20208;-79
2022/04/11 05:18:42;;;;;;;7.68;6.13;;;2.50;99.90;;;;;;5997225;23;20197;-79
2022/04/11 05:21:09;;;;;;;8.55;7.65;;;2.50;99.90;;;;;;5991165;23;20296;-80
2022/04/11 05:23:38;;;;;;;7.57;6.97;;;2.50;99.90;;;;;;5987153;23;20231;-82
2022/04/11 05:26:06;;;;;;;8.10;6.60;;;2.50;99.90;;;;;;5991587;23;20211;-79
2022/04/11 05:28:34;;;;;;;7.32;6.60;;;2.50;99.90;;;;;;5988061;23;20271;-81
2022/04/11 05:31:02;;;;;;;7.55;6.85;;;2.60;99.90;;;;;;5995839;23;20273;-80
2022/04/11 05:33:29;;;;;;;8.45;7.00;;;2.60;99.90;;;;;;5995200;23;20209;-82
2022/04/11 05:35:56;;;;;;;7.95;6.57;;;2.60;99.90;;;;;;5988626;23;20205;-80
2022/04/11 05:38:23;;;;;;;6.70;6.20;;;2.70;99.90;;;;;;5989510;23;20186;-79
2022/04/11 05:40:52;;;;;;;6.60;5.90;;;2.70;99.90;;;;;;5992623;23;20639;-81
2022/04/11 05:43:19;;;;;;;7.20;6.60;;;2.80;99.90;;;;;;5991838;23;20185;-82
2022/04/11 05:45:46;;;;;;;7.10;6.50;;;2.80;99.90;;;;;;5991869;23;20295;-84
2022/04/11 05:48:13;;;;;;;6.55;6.05;;;2.90;99.90;;;;;;5998738;23;20700;-83
2022/04/11 05:50:40;;;;;;;7.68;6.45;;;2.90;99.90;;;;;;5999951;23;20286;-82
2022/04/11 05:53:07;;;;;;;7.50;6.43;;;3.00;99.90;;;;;;5993685;23;20297;-82
2022/04/11 05:55:33;;;;;;;7.53;6.72;;;3.00;99.90;;;;;;5996889;23;20702;-85
2022/04/11 05:58:02;;;;;;;6.93;6.40;;;3.00;99.90;;;;;;5996977;23;20203;-83
2022/04/11 06:00:29;;;;;;;7.57;6.90;;;3.10;99.90;;;;;;5993397;23;20620;-87
2022/04/11 06:02:56;;;;;;;6.85;6.25;;;3.10;99.90;;;;;;5988498;23;20287;-86
2022/04/11 06:05:23;;;;;;;7.38;6.68;;;3.20;99.90;;;;;;5994795;23;20243;-85
2022/04/11 06:07:49;;;;;;;6.93;6.22;;;3.20;99.90;;;;;;5993760;23;20648;-85
2022/04/11 06:10:16;;;;;;;7.15;6.53;;;3.20;99.90;;;;;;5997280;23;20224;-85
2022/04/11 06:12:43;;;;;;;8.88;7.00;;;3.40;99.90;;;;;;5986547;23;20646;-85
2022/04/11 06:15:17;;;;;;;6.38;5.68;;;3.50;99.90;;;;;;5995326;23;20608;-85
2022/04/11 06:17:44;;;;;;;7.13;6.50;;;3.50;99.90;;;;;;5988948;23;20605;-84
2022/04/11 06:20:12;;;;;;;6.90;6.30;;;3.60;99.90;;;;;;5999644;23;20314;-84
2022/04/11 06:22:40;;;;;;;6.88;6.28;;;3.70;99.90;;;;;;5995627;23;20183;-86
2022/04/11 06:25:09;;;;;;;7.00;6.35;;;3.80;99.90;;;;;;5993775;23;20214;-82
2022/04/11 06:27:37;;;;;;;7.22;6.57;;;3.90;99.90;;;;;;5998612;23;20200;-84
2022/04/11 06:30:05;;;;;;;6.55;5.95;;;4.10;99.90;;;;;;6001180;23;20252;-84
2022/04/11 06:32:34;;;;;;;6.78;6.25;;;4.10;99.90;;;;;;6017392;23;20645;-84
2022/04/11 06:35:02;;;;;;;8.32;6.13;;;4.30;99.90;;;;;;6002545;23;20212;-84
2022/04/11 06:37:29;;;;;;;6.68;6.07;;;4.60;99.90;;;;;;5994853;23;20517;-84
2022/04/11 06:39:56;;;;;;;6.88;6.18;;;4.90;99.90;;;;;;6003421;23;20694;-81
2022/04/11 06:42:23;;;;;;;6.10;5.60;;;5.30;99.90;;;;;;6007776;23;20186;-84
2022/04/11 06:44:50;;;;;;;7.85;5.78;;;5.90;99.90;;;;;;6006949;23;20242;-84
2022/04/11 06:47:18;;;;;;;5.88;5.25;;;6.50;99.90;;;;;;5996673;23;20527;-85
2022/04/11 06:49:47;;;;;;;6.38;5.78;;;7.20;99.90;;;;;;5998481;23;20261;-84
2022/04/11 06:52:14;;;;;;;5.32;4.90;;;7.80;99.90;;;;;;5999931;23;20277;-84
2022/04/11 06:54:42;;;;;;;6.63;5.70;;;8.40;99.90;;;;;;5999673;23;20209;-85
2022/04/11 06:57:09;;;;;;;6.05;5.30;;;8.90;99.90;;;;;;5997422;23;20479;-86
2022/04/11 06:59:36;;;;;;;5.05;4.40;;;9.50;99.90;;;;;;6003144;23;20269;-84
2022/04/11 07:02:03;;;;;;;4.50;4.20;;;10.10;99.90;;;;;;5990225;23;20778;-86
2022/04/11 07:04:30;;;;;;;4.90;4.50;;;10.50;99.90;;;;;;5997782;23;20202;-86
2022/04/11 07:06:58;;;;;;;5.50;4.50;;;11.00;99.90;;;;;;5997411;23;20291;-86
2022/04/11 07:09:25;;;;;;;4.65;4.18;;;11.30;99.90;;;;;;5992761;23;20239;-83
2022/04/11 07:11:52;;;;;;;4.90;4.50;;;11.60;99.90;;;;;;5997126;23;20641;-86
2022/04/11 07:14:20;;;;;;;4.60;4.20;;;11.80;99.90;;;;;;5994116;23;20203;-83
2022/04/11 07:16:48;;;;;;;4.95;4.57;;;11.90;99.90;;;;;;5993072;23;20640;-84
2022/04/11 07:19:15;;;;;;;6.85;4.63;;;12.10;99.90;;;;;;5992706;23;20183;-86
2022/04/11 07:21:42;;;;;;;4.28;3.90;;;12.30;99.90;;;;;;5995136;23;20228;-85
2022/04/11 07:24:11;;;;;;;5.60;4.40;;;12.60;99.90;;;;;;5998141;23;20332;-85
2022/04/11 07:26:40;;;;;;;5.57;4.85;;;12.60;99.70;;;;;;5990638;23;20197;-86
2022/04/11 07:29:07;;;;;;;5.03;4.63;;;12.80;99.20;;;;;;5996912;23;20553;-86
2022/04/11 07:31:34;;;;;;;4.93;4.43;;;13.00;99.20;;;;;;5999132;23;20277;-86
2022/04/11 07:34:02;;;;;;;5.20;4.75;;;13.00;98.60;;;;;;5997728;23;20236;-85
2022/04/11 07:36:29;;;;;;;4.95;4.45;;;13.20;98.00;;;;;;6001465;23;20292;-86
2022/04/11 07:38:57;;;;;;;4.63;4.22;;;13.20;97.60;;;;;;5989636;23;20184;-87
2022/04/11 07:41:25;;;;;;;5.32;4.65;;;13.20;97.60;;;;;;6000304;23;20217;-86
2022/04/11 07:43:53;;;;;;;5.10;4.60;;;13.20;97.20;;;;;;6001293;23;20193;-86
2022/04/11 07:46:20;;;;;;;5.13;4.35;;;13.30;96.70;;;;;;6001880;23;20202;-87
2022/04/11 07:48:47;;;;;;;5.22;4.72;;;13.70;96.60;;;;;;5990112;23;20249;-86
2022/04/11 07:51:14;;;;;;;4.60;4.25;;;14.10;96.10;;;;;;5995149;23;20229;-85
2022/04/11 07:53:41;;;;;;;5.00;4.55;;;14.40;95.00;;;;;;5997559;23;20213;-86
2022/04/11 07:56:08;;;;;;;4.72;4.40;;;14.70;94.00;;;;;;5993656;23;20320;-85
2022/04/11 07:58:36;;;;;;;4.75;4.35;;;14.90;94.10;;;;;;5997030;23;20194;-87
2022/04/11 08:01:03;;;;;;;4.47;4.15;;;15.20;93.40;;;;;;6002248;23;20214;-88
2022/04/11 08:03:30;;;;;;;4.68;3.85;;;15.60;91.90;;;;;;5999469;23;20222;-87
2022/04/11 08:05:57;;;;;;;4.80;4.17;;;15.60;90.20;;;;;;5990369;23;20253;-90
2022/04/11 08:08:24;;;;;;;4.63;4.00;;;15.90;90.70;;;;;;5994333;23;20540;-86
2022/04/11 08:10:51;;;;;;;4.23;3.93;;;16.10;89.50;;;;;;6001558;23;20465;-84
2022/04/11 08:13:18;;;;;;;4.37;3.80;;;16.40;88.80;;;;;;5987490;23;20455;-87
2022/04/11 08:15:47;;;;;;;4.70;3.93;;;16.70;86.50;;;;;;5998515;23;20499;-83
2022/04/11 08:18:13;;;;;;;4.33;3.50;;;16.50;83.90;;;;;;5988962;23;20529;-84
2022/04/11 08:20:40;;;;;;;4.63;3.30;;;16.50;82.50;;;;;;5997559;23;20525;-81
2022/04/11 08:23:07;;;;;;;3.92;3.33;;;16.30;80.70;;;;;;5998754;23;20442;-86
2022/04/11 08:25:34;;;;;;;3.57;3.17;;;16.30;80.20;;;;;;5989350;23;20214;-87
2022/04/11 08:28:03;;;;;;;4.10;3.70;;;16.40;79.60;;;;;;5990410;23;20439;-87
2022/04/11 08:30:30;;;;;;;3.93;3.37;;;16.40;79.00;;;;;;5975687;23;20455;-85
2022/04/11 08:32:58;;;;;;;3.10;2.90;;;16.30;79.30;;;;;;5989731;23;20458;-86
2022/04/11 08:35:25;;;;;;;3.87;3.40;;;16.70;80.40;;;;;;5990027;23;20474;-86
2022/04/11 08:37:52;;;;;;;3.20;2.80;;;16.80;77.80;;;;;;6001694;23;20922;-86
2022/04/11 08:40:20;;;;;;;3.80;3.47;;;17.00;77.80;;;;;;6001736;23;20437;-86
2022/04/11 08:42:49;;;;;;;4.60;3.10;;;17.20;76.80;;;;;;5998032;23;20526;-86
2022/04/11 08:45:18;;;;;;;3.53;3.23;;;17.30;76.50;;;;;;5991902;23;20484;-86
2022/04/11 08:47:47;;;;;;;3.40;3.10;;;17.50;76.20;;;;;;5995818;23;20499;-86
2022/04/11 08:50:16;;;;;;;3.40;3.20;;;17.60;75.60;;;;;;5997554;23;20453;-86
2022/04/11 08:52:43;;;;;;;3.40;3.03;;;17.50;73.00;;;;;;6001010;23;20446;-85
2022/04/11 08:55:11;;;;;;;3.40;3.10;;;17.70;72.50;;;;;;5993311;23;20453;-85
2022/04/11 08:57:39;;;;;;;3.17;2.97;;;17.80;72.50;;;;;;5992084;23;20437;-85
2022/04/11 09:00:09;;;;;;;4.20;3.80;;;17.70;70.30;;;;;;5992839;23;20451;-86
2022/04/11 09:02:37;;;;;;;3.57;3.00;;;17.40;70.50;;;;;;5984605;23;20468;-84
2022/04/11 09:05:05;;;;;;;4.97;3.23;;;17.30;71.00;;;;;;5991794;23;20541;-85
2022/04/11 09:07:47;;;;;;;3.80;3.30;;;17.50;71.50;;;;;;5992804;23;20507;-88
2022/04/11 09:10:19;;;;;;;3.70;3.20;;;17.90;69.20;;;;;;5983627;23;20447;-85
2022/04/11 09:12:48;;;;;;;3.50;3.20;;;18.00;69.80;;;;;;5992342;23;20528;-87
2022/04/11 09:15:15;;;;;;;3.13;2.90;;;18.10;67.60;;;;;;5998445;23;20487;-85
2022/04/11 09:17:43;;;;;;;2.80;2.60;;;18.40;69.00;;;;;;5992708;23;20491;-85
2022/04/11 09:20:12;;;;;;;3.03;2.83;;;18.40;66.50;;;;;;5988095;23;20449;-85
2022/04/11 09:22:39;;;;;;;4.57;4.17;;;18.40;68.40;;;;;;5999635;23;20476;-86
2022/04/11 09:25:09;;;;;;;3.40;2.90;;;18.60;66.40;;;;;;5993785;23;20457;-86
2022/04/11 09:27:36;;;;;;;3.90;2.50;;;18.70;64.90;;;;;;5987537;23;20531;-86
2022/04/11 09:30:22;;;;;;;2.90;2.70;;;18.80;63.40;;;;;;5992737;23;20538;-86
2022/04/11 09:33:02;;;;;;;3.00;2.60;;;18.40;63.90;;;;;;6001044;23;20482;-85
2022/04/11 09:35:31;;;;;;;2.63;2.43;;;18.40;65.00;;;;;;5987809;23;20456;-85
2022/04/11 09:38:10;;;;;;;2.83;2.53;;;18.40;65.30;;;;;;5998603;23;20455;-86
2022/04/11 09:40:41;;;;;;;3.07;2.87;;;18.40;63.80;;;;;;5990659;23;20448;-86
2022/04/11 09:43:08;;;;;;;3.00;2.80;;;18.40;63.10;;;;;;6000554;23;20473;-86
2022/04/11 09:45:41;;;;;;;3.23;2.93;;;18.90;61.50;;;;;;5999530;23;20547;-85
2022/04/11 09:48:09;;;;;;;3.07;2.80;;;19.10;61.20;;;;;;5986610;23;20935;-86
2022/04/11 09:50:37;;;;;;;2.83;2.63;;;19.20;60.40;;;;;;5991318;23;20442;-86
2022/04/11 09:53:11;;;;;;;3.03;2.73;;;19.40;61.40;;;;;;5984663;23;20921;-88
2022/04/11 09:55:41;;;;;;;2.60;2.30;;;19.00;58.50;;;;;;5990953;23;20519;-87
2022/04/11 09:58:09;;;;;;;2.70;2.50;;;19.10;59.30;;;;;;5990860;23;20473;-87
2022/04/11 10:00:37;;;;;;;2.43;2.23;;;19.10;58.90;;;;;;5999522;23;20491;-85
2022/04/11 10:03:06;;;;;;;2.37;2.17;;;19.00;58.00;;;;;;5993221;23;20474;-86
2022/04/11 10:05:34;;;;;;;2.53;2.33;;;19.00;58.50;;;;;;5989958;23;20527;-86
2022/04/11 10:08:03;;;;;;;2.30;2.13;;;19.10;58.30;;;;;;6001444;23;20818;-86
2022/04/11 10:10:34;;;;;;;2.43;2.20;;;19.00;57.90;;;;;;5997740;23;20532;-87
2022/04/11 10:13:03;;;;;;;2.20;2.00;;;18.90;57.70;;;;;;5997017;23;20449;-86
2022/04/11 10:15:30;;;;;;;2.83;2.60;;;19.10;57.70;;;;;;5994237;23;20484;-86
2022/04/11 10:17:58;;;;;;;3.10;2.30;;;18.60;57.70;;;;;;5996440;23;20444;-85
2022/04/11 10:20:30;;;;;;;2.70;2.10;;;18.50;58.50;;;;;;5990802;23;20445;-87
2022/04/11 10:23:11;;;;;;;1.80;1.70;;;18.90;56.70;;;;;;5993746;23;20580;-86
2022/04/11 10:25:45;;;;;;;3.37;1.90;;;19.10;56.00;;;;;;5990584;23;20520;-87
2022/04/11 10:28:18;;;;;;;1.90;1.80;;;19.60;56.40;;;;;;5994852;23;20508;-86
2022/04/11 10:30:47;;;;;;;2.17;1.97;;;19.90;56.60;;;;;;5992980;23;20990;-86
2022/04/11 10:33:14;;;;;;;2.77;2.20;;;20.10;56.70;;;;;;5997394;23;20549;-87
2022/04/11 10:35:43;;;;;;;2.40;1.90;;;20.20;55.80;;;;;;5999298;23;20990;-86
2022/04/11 10:38:13;;;;;;;2.67;2.07;;;20.30;53.70;;;;;;6000499;23;20519;-87
2022/04/11 10:40:47;;;;;;;2.50;2.30;;;20.10;55.60;;;;;;5998455;23;20445;-86
2022/04/11 10:43:17;;;;;;;2.03;1.87;;;20.00;53.60;;;;;;5995767;23;20472;-86
2022/04/11 10:45:46;;;;;;;2.70;2.50;;;19.80;55.00;;;;;;5988218;23;20527;-87
2022/04/11 10:48:18;;;;;;;1.97;1.80;;;19.60;55.10;;;;;;5996864;23;20944;-87
2022/04/11 10:50:45;;;;;;;1.77;1.67;;;19.70;53.10;;;;;;5999390;23;20605;-87
2022/04/11 10:53:24;;;;;;;2.17;1.97;;;19.80;52.70;;;;;;5987106;23;20962;-86
2022/04/11 10:55:56;;;;;;;2.40;2.00;;;19.50;53.10;;;;;;5976631;23;20450;-87
2022/04/11 10:58:40;;;;;;;1.77;1.67;;;19.60;54.60;;;;;;5990579;23;20445;-84
2022/04/11 11:01:07;;;;;;;2.07;1.87;;;19.70;54.50;;;;;;5992602;23;20472;-86
2022/04/11 11:03:34;;;;;;;2.40;2.07;;;20.00;53.60;;;;;;5991811;23;20978;-86
2022/04/11 11:06:17;;;;;;;2.20;1.60;;;20.40;53.20;;;;;;5995579;23;20440;-84
2022/04/11 11:08:44;;;;;;;2.23;2.03;;;20.80;54.10;;;;;;5994829;23;20488;-85
2022/04/11 11:11:23;;;;;;;1.97;1.60;;;20.10;52.30;;;;;;6000582;23;20525;-86
2022/04/11 11:13:53;;;;;;;2.03;1.80;;;20.10;50.70;;;;;;5991225;23;20457;-86
2022/04/11 11:16:58;;;;;;;2.13;1.93;;;20.00;52.40;;;;;;5997740;23;20499;-86
2022/04/11 11:19:26;;;;;;;2.73;2.10;;;19.90;51.40;;;;;;5998615;23;20939;-86
2022/04/11 11:22:04;;;;;;;2.00;1.70;;;19.60;51.90;;;;;;5991851;23;20469;-86
2022/04/11 11:24:32;;;;;;;3.80;1.90;;;19.60;51.10;;;;;;5999258;23;20493;-86
2022/04/11 11:27:03;;;;;;;1.97;1.80;;;19.60;51.50;;;;;;5992885;23;20466;-86
2022/04/11 11:29:34;;;;;;;3.63;2.57;;;19.70;52.50;;;;;;5996428;23;20964;-87
2022/04/11 11:32:03;;;;;;;2.13;1.93;;;19.60;52.80;;;;;;5998488;23;20475;-86
2022/04/11 11:34:31;;;;;;;2.37;2.10;;;19.50;51.70;;;;;;5998054;23;21067;-86
2022/04/11 11:37:01;;;;;;;2.00;1.80;;;19.60;52.10;;;;;;6002061;23;20483;-86
2022/04/11 11:39:30;;;;;;;3.63;1.80;;;20.00;51.30;;;;;;5994460;23;20473;-87
2022/04/11 11:42:02;;;;;;;2.60;2.27;;;20.10;50.40;;;;;;5991842;23;20980;-87
2022/04/11 11:44:32;;;;;;;2.10;1.90;;;20.00;52.30;;;;;;5987420;23;20615;-87
2022/04/11 11:47:01;;;;;;;3.03;2.30;;;20.10;51.40;;;;;;5996129;23;20437;-87
2022/04/11 11:49:29;;;;;;;1.90;1.80;;;20.20;52.60;;;;;;5991491;23;20443;-87
2022/04/11 11:51:56;;;;;;;2.07;1.87;;;20.30;52.30;;;;;;5995298;23;20443;-86
2022/04/11 11:54:35;;;;;;;2.33;1.90;;;20.30;50.70;;;;;;6000503;23;20523;-86
2022/04/11 11:57:03;;;;;;;1.70;1.60;;;20.40;51.10;;;;;;5980760;23;20796;-86
2022/04/11 11:59:31;;;;;;;3.37;2.50;;;20.20;51.00;;;;;;5992799;23;21750;-87
2022/04/11 12:04:43;;;;;;;1.97;1.70;;;20.10;51.00;;;;;;5992786;23;20479;-87
2022/04/11 12:07:12;;;;;;;2.67;1.80;;;20.60;50.20;;;;;;5995012;23;20433;-87
2022/04/11 12:09:41;;;;;;;2.60;2.03;;;20.70;50.00;;;;;;5995270;23;20449;-86
2022/04/11 12:12:09;;;;;;;2.13;1.93;;;19.80;49.70;;;;;;5997126;23;20529;-87
2022/04/11 12:15:01;;;;;;;2.23;2.03;;;19.60;50.30;;;;;;6000177;23;20457;-87
2022/04/11 12:17:33;;;;;;;2.60;1.90;;;19.80;49.60;;;;;;5999797;23;20449;-87
2022/04/11 12:20:17;;;;;;;2.40;2.13;;;20.10;50.40;;;;;;5994280;23;20464;-87
2022/04/11 12:23:04;;;;;;;2.17;1.97;;;20.10;50.70;;;;;;5991861;23;20568;-86
2022/04/11 12:25:33;;;;;;;2.03;1.83;;;20.10;49.40;;;;;;5994400;23;20441;-84
2022/04/11 12:28:17;;;;;;;2.43;2.00;;;20.30;50.60;;;;;;5996685;23;20556;-85
2022/04/11 12:30:48;;;;;;;2.20;2.07;;;20.40;50.60;;;;;;5992653;23;20450;-87
2022/04/11 12:33:36;;;;;;;2.00;1.90;;;20.50;49.70;;;;;;5993275;23;20578;-86
2022/04/11 12:36:08;;;;;;;2.67;1.90;;;20.60;51.20;;;;;;5991352;23;20473;-85
2022/04/11 12:38:43;;;;;;;2.37;2.17;;;21.00;50.60;;;;;;5995628;23;20441;-85
2022/04/11 12:41:28;;;;;;;3.13;2.87;;;21.10;48.30;;;;;;5993818;23;21452;-84
2022/04/11 12:44:17;;;;;;;2.40;2.20;;;21.00;48.60;;;;;;5996163;23;20484;-87
2022/04/11 12:46:47;;;;;;;2.20;2.00;;;20.80;48.20;;;;;;5997909;23;20448;-89
2022/04/11 12:49:19;;;;;;;2.57;2.37;;;20.80;47.70;;;;;;5993278;23;20440;-86
2022/04/11 12:51:58;;;;;;;2.30;2.00;;;20.70;46.80;;;;;;5996864;23;20445;-88
2022/04/11 12:54:36;;;;;;;1.70;1.60;;;20.70;47.90;;;;;;5991967;23;20615;-85
2022/04/11 12:57:03;;;;;;;3.53;2.00;;;20.70;48.10;;;;;;5997416;23;20447;-86
2022/04/11 12:59:32;;;;;;;2.20;1.90;;;20.70;49.30;;;;;;5998649;23;20476;-86
2022/04/11 13:02:06;;;;;;;1.90;1.80;;;20.60;50.50;;;;;;5993841;23;20916;-84
2022/04/11 13:04:34;;;;;;;2.20;2.00;;;20.60;48.60;;;;;;5993033;23;21004;-87